sensor_id;sensor_type;location;lat;lon;timestamp;pressure;altitude;pressure_sealevel;temperature;humidity
3122;BME280;1571;52.524;14.104;2023-08-12T00:00:25;101474.13;;;15.50;100.00
3122;BME280;1571;52.524;14.104;2023-08-12T00:02:53;101473.41;;;15.23;100.00
3122;BME280;1571;52.524;14.104;2023-08-12T00:05:22;101481.72;;;15.31;100.00
3122;BME280;1571;52.524;14.104;2023-08-12T00:07:50;101485.56;;;15.52;100.00
3122;BME280;1571;52.524;14.104;2023-08-12T00:10:18;101491.56;;;15.56;100.00
3122;BME280;1571;52.524;14.104;2023-08-12T00:12:46;101488.22;;;15.65;100.00
3122;BME280;1571;52.524;14.104;2023-08-12T00:15:14;101491.00;;;15.64;100.00
3122;BME280;1571;52.524;14.104;2023-08-12T00:17:44;101498.63;;;15.57;100.00
3122;BME280;1571;52.524;14.104;2023-08-12T00:20:12;101483.22;;;15.60;100.00
3122;BME280;1571;52.524;14.104;2023-08-12T00:22:40;101479.69;;;15.47;100.00
3122;BME280;1571;52.524;14.104;2023-08-12T00:25:09;101480.66;;;15.46;100.00
3122;BME280;1571;52.524;14.104;2023-08-12T00:27:37;101483.97;;;15.37;100.00
3122;BME280;1571;52.524;14.104;2023-08-12T00:30:06;101492.00;;;15.37;100.00
3122;BME280;1571;52.524;14.104;2023-08-12T00:32:35;101491.47;;;15.45;100.00
3122;BME280;1571;52.524;14.104;2023-08-12T00:35:05;101493.94;;;15.48;100.00
3122;BME280;1571;52.524;14.104;2023-08-12T00:37:33;101482.06;;;15.39;100.00
3122;BME280;1571;52.524;14.104;2023-08-12T00:40:02;101484.75;;;15.13;100.00
3122;BME280;1571;52.524;14.104;2023-08-12T00:42:31;101489.00;;;15.29;100.00
3122;BME280;1571;52.524;14.104;2023-08-12T00:44:59;101476.19;;;15.34;100.00
3122;BME280;1571;52.524;14.104;2023-08-12T00:47:29;101482.16;;;15.37;100.00
3122;BME280;1571;52.524;14.104;2023-08-12T00:49:58;101486.13;;;15.32;100.00
3122;BME280;1571;52.524;14.104;2023-08-12T00:52:28;101477.25;;;15.31;100.00
3122;BME280;1571;52.524;14.104;2023-08-12T00:54:57;101487.31;;;15.40;100.00
3122;BME280;1571;52.524;14.104;2023-08-12T00:57:25;101476.47;;;15.42;100.00
3122;BME280;1571;52.524;14.104;2023-08-12T00:59:55;101480.69;;;15.33;100.00
3122;BME280;1571;52.524;14.104;2023-08-12T01:02:24;101487.97;;;15.18;100.00
3122;BME280;1571;52.524;14.104;2023-08-12T01:04:52;101483.06;;;14.99;100.00
3122;BME280;1571;52.524;14.104;2023-08-12T01:07:20;101484.72;;;14.88;100.00
3122;BME280;1571;52.524;14.104;2023-08-12T01:09:50;101482.16;;;14.73;100.00
3122;BME280;1571;52.524;14.104;2023-08-12T01:12:24;101486.66;;;14.86;100.00
3122;BME280;1571;52.524;14.104;2023-08-12T01:15:08;101486.22;;;14.79;100.00
3122;BME280;1571;52.524;14.104;2023-08-12T01:17:38;101478.00;;;14.95;100.00
3122;BME280;1571;52.524;14.104;2023-08-12T01:20:11;101471.47;;;14.73;100.00
3122;BME280;1571;52.524;14.104;2023-08-12T01:22:40;101477.25;;;14.80;100.00
3122;BME280;1571;52.524;14.104;2023-08-12T01:25:10;101482.16;;;14.99;100.00
3122;BME280;1571;52.524;14.104;2023-08-12T01:27:38;101466.13;;;15.12;100.00
3122;BME280;1571;52.524;14.104;2023-08-12T01:30:08;101457.47;;;15.08;100.00
3122;BME280;1571;52.524;14.104;2023-08-12T01:32:42;101463.88;;;15.06;100.00
3122;BME280;1571;52.524;14.104;2023-08-12T01:35:19;101458.22;;;15.10;100.00
3122;BME280;1571;52.524;14.104;2023-08-12T01:37:50;101449.44;;;15.21;100.00
3122;BME280;1571;52.524;14.104;2023-08-12T01:40:24;101445.16;;;15.31;100.00
3122;BME280;1571;52.524;14.104;2023-08-12T01:42:52;101438.00;;;15.19;100.00
3122;BME280;1571;52.524;14.104;2023-08-12T01:45:21;101438.66;;;15.10;100.00
3122;BME280;1571;52.524;14.104;2023-08-12T01:47:50;101441.75;;;14.91;100.00
3122;BME280;1571;52.524;14.104;2023-08-12T01:50:18;101438.97;;;15.05;100.00
3122;BME280;1571;52.524;14.104;2023-08-12T01:52:48;101443.75;;;15.13;100.00
3122;BME280;1571;52.524;14.104;2023-08-12T01:55:17;101438.53;;;15.11;100.00
3122;BME280;1571;52.524;14.104;2023-08-12T01:57:47;101434.03;;;14.99;100.00
3122;BME280;1571;52.524;14.104;2023-08-12T02:00:15;101435.75;;;14.87;100.00
3122;BME280;1571;52.524;14.104;2023-08-12T02:02:44;101440.56;;;14.95;100.00
3122;BME280;1571;52.524;14.104;2023-08-12T02:05:14;101434.59;;;14.91;100.00
3122;BME280;1571;52.524;14.104;2023-08-12T02:07:42;101439.72;;;14.94;100.00
3122;BME280;1571;52.524;14.104;2023-08-12T02:10:10;101431.16;;;15.02;100.00
3122;BME280;1571;52.524;14.104;2023-08-12T02:12:38;101428.16;;;14.94;100.00
3122;BME280;1571;52.524;14.104;2023-08-12T02:15:09;101425.72;;;14.91;100.00
3122;BME280;1571;52.524;14.104;2023-08-12T02:17:38;101421.16;;;14.53;100.00
3122;BME280;1571;52.524;14.104;2023-08-12T02:20:07;101423.00;;;14.65;100.00
3122;BME280;1571;52.524;14.104;2023-08-12T02:22:36;101423.75;;;14.54;100.00
3122;BME280;1571;52.524;14.104;2023-08-12T02:25:05;101420.66;;;14.61;100.00
3122;BME280;1571;52.524;14.104;2023-08-12T02:27:33;101419.28;;;14.68;100.00
3122;BME280;1571;52.524;14.104;2023-08-12T02:30:01;101416.72;;;14.66;100.00
3122;BME280;1571;52.524;14.104;2023-08-12T02:32:31;101419.97;;;14.44;100.00
3122;BME280;1571;52.524;14.104;2023-08-12T02:35:00;101428.72;;;14.33;100.00
3122;BME280;1571;52.524;14.104;2023-08-12T02:37:29;101422.72;;;14.57;100.00
3122;BME280;1571;52.524;14.104;2023-08-12T02:39:58;101418.06;;;14.46;100.00
3122;BME280;1571;52.524;14.104;2023-08-12T02:42:26;101423.19;;;14.36;100.00
3122;BME280;1571;52.524;14.104;2023-08-12T02:44:54;101424.97;;;14.36;100.00
3122;BME280;1571;52.524;14.104;2023-08-12T02:47:23;101418.75;;;14.63;100.00
3122;BME280;1571;52.524;14.104;2023-08-12T02:49:52;101414.78;;;14.55;100.00
3122;BME280;1571;52.524;14.104;2023-08-12T02:52:21;101405.03;;;14.54;100.00
3122;BME280;1571;52.524;14.104;2023-08-12T02:54:49;101397.03;;;14.54;100.00
3122;BME280;1571;52.524;14.104;2023-08-12T02:57:18;101397.03;;;14.54;100.00
3122;BME280;1571;52.524;14.104;2023-08-12T02:59:46;101398.34;;;14.62;100.00
3122;BME280;1571;52.524;14.104;2023-08-12T03:02:14;101394.97;;;14.45;100.00
3122;BME280;1571;52.524;14.104;2023-08-12T03:04:43;101391.25;;;14.48;100.00
3122;BME280;1571;52.524;14.104;2023-08-12T03:07:12;101388.91;;;14.56;100.00
3122;BME280;1571;52.524;14.104;2023-08-12T03:09:41;101385.03;;;14.47;100.00
3122;BME280;1571;52.524;14.104;2023-08-12T03:12:09;101382.22;;;14.23;100.00
3122;BME280;1571;52.524;14.104;2023-08-12T03:14:37;101386.50;;;14.38;100.00
3122;BME280;1571;52.524;14.104;2023-08-12T03:17:06;101386.38;;;14.27;100.00
3122;BME280;1571;52.524;14.104;2023-08-12T03:19:36;101393.09;;;14.20;100.00
3122;BME280;1571;52.524;14.104;2023-08-12T03:22:05;101390.91;;;14.40;100.00
3122;BME280;1571;52.524;14.104;2023-08-12T03:24:37;101396.16;;;14.41;100.00
3122;BME280;1571;52.524;14.104;2023-08-12T03:27:05;101390.56;;;14.31;100.00
3122;BME280;1571;52.524;14.104;2023-08-12T03:29:34;101395.41;;;14.39;100.00
3122;BME280;1571;52.524;14.104;2023-08-12T03:32:03;101393.34;;;14.43;100.00
3122;BME280;1571;52.524;14.104;2023-08-12T03:34:31;101374.41;;;14.60;100.00
3122;BME280;1571;52.524;14.104;2023-08-12T03:37:00;101380.34;;;14.51;100.00
3122;BME280;1571;52.524;14.104;2023-08-12T03:39:29;101365.84;;;14.55;100.00
3122;BME280;1571;52.524;14.104;2023-08-12T03:42:00;101364.03;;;14.55;100.00
3122;BME280;1571;52.524;14.104;2023-08-12T03:44:29;101370.81;;;14.47;100.00
3122;BME280;1571;52.524;14.104;2023-08-12T03:46:58;101365.06;;;14.53;100.00
3122;BME280;1571;52.524;14.104;2023-08-12T03:49:27;101363.94;;;14.57;100.00
3122;BME280;1571;52.524;14.104;2023-08-12T03:51:55;101354.28;;;14.54;100.00
3122;BME280;1571;52.524;14.104;2023-08-12T03:54:25;101356.84;;;14.56;100.00
3122;BME280;1571;52.524;14.104;2023-08-12T03:56:53;101352.34;;;14.56;100.00
3122;BME280;1571;52.524;14.104;2023-08-12T03:59:24;101349.38;;;14.61;100.00
3122;BME280;1571;52.524;14.104;2023-08-12T04:01:53;101350.94;;;14.51;100.00
3122;BME280;1571;52.524;14.104;2023-08-12T04:04:21;101333.84;;;14.53;100.00
3122;BME280;1571;52.524;14.104;2023-08-12T04:06:49;101344.91;;;14.62;100.00
3122;BME280;1571;52.524;14.104;2023-08-12T04:09:18;101342.31;;;14.60;100.00
3122;BME280;1571;52.524;14.104;2023-08-12T04:11:47;101342.31;;;14.60;100.00
3122;BME280;1571;52.524;14.104;2023-08-12T04:14:15;101342.09;;;14.63;100.00
3122;BME280;1571;52.524;14.104;2023-08-12T04:16:44;101333.13;;;14.64;100.00
3122;BME280;1571;52.524;14.104;2023-08-12T04:19:13;101335.06;;;14.75;100.00
3122;BME280;1571;52.524;14.104;2023-08-12T04:21:41;101325.84;;;14.92;100.00
3122;BME280;1571;52.524;14.104;2023-08-12T04:24:13;101319.44;;;14.56;100.00
3122;BME280;1571;52.524;14.104;2023-08-12T04:26:41;101326.53;;;14.57;100.00
3122;BME280;1571;52.524;14.104;2023-08-12T04:29:10;101319.25;;;14.59;100.00
3122;BME280;1571;52.524;14.104;2023-08-12T04:31:41;101320.81;;;15.00;100.00
3122;BME280;1571;52.524;14.104;2023-08-12T04:34:11;101311.94;;;15.60;100.00
3122;BME280;1571;52.524;14.104;2023-08-12T04:36:39;101300.06;;;16.11;100.00
3122;BME280;1571;52.524;14.104;2023-08-12T04:39:10;101290.75;;;16.28;100.00
3122;BME280;1571;52.524;14.104;2023-08-12T04:41:40;101289.41;;;17.13;100.00
3122;BME280;1571;52.524;14.104;2023-08-12T04:44:08;101280.44;;;17.46;100.00
3122;BME280;1571;52.524;14.104;2023-08-12T04:46:37;101280.88;;;17.51;99.41
3122;BME280;1571;52.524;14.104;2023-08-12T04:49:05;101284.31;;;17.53;98.08
3122;BME280;1571;52.524;14.104;2023-08-12T04:51:34;101278.94;;;17.53;96.08
3122;BME280;1571;52.524;14.104;2023-08-12T04:54:03;101279.97;;;17.41;95.87
3122;BME280;1571;52.524;14.104;2023-08-12T04:56:32;101285.53;;;17.05;98.17
3122;BME280;1571;52.524;14.104;2023-08-12T04:59:01;101277.47;;;17.17;97.88
3122;BME280;1571;52.524;14.104;2023-08-12T05:01:29;101274.00;;;16.82;100.00
3122;BME280;1571;52.524;14.104;2023-08-12T05:03:58;101278.59;;;16.69;100.00
3122;BME280;1571;52.524;14.104;2023-08-12T05:06:29;101286.00;;;16.77;100.00
3122;BME280;1571;52.524;14.104;2023-08-12T05:08:59;101281.28;;;17.03;100.00
3122;BME280;1571;52.524;14.104;2023-08-12T05:11:29;101285.56;;;16.83;100.00
3122;BME280;1571;52.524;14.104;2023-08-12T05:13:57;101280.53;;;17.01;100.00
3122;BME280;1571;52.524;14.104;2023-08-12T05:16:25;101285.06;;;17.00;100.00
3122;BME280;1571;52.524;14.104;2023-08-12T05:18:55;101271.25;;;17.16;100.00
3122;BME280;1571;52.524;14.104;2023-08-12T05:21:23;101279.00;;;17.31;100.00
3122;BME280;1571;52.524;14.104;2023-08-12T05:23:52;101270.31;;;17.71;100.00
3122;BME280;1571;52.524;14.104;2023-08-12T05:26:22;101278.25;;;17.72;100.00
3122;BME280;1571;52.524;14.104;2023-08-12T05:28:50;101261.13;;;18.05;100.00
3122;BME280;1571;52.524;14.104;2023-08-12T05:31:19;101262.84;;;18.37;98.96
3122;BME280;1571;52.524;14.104;2023-08-12T05:33:47;101250.13;;;18.70;95.97
3122;BME280;1571;52.524;14.104;2023-08-12T05:36:15;101246.13;;;18.95;95.71
3122;BME280;1571;52.524;14.104;2023-08-12T05:38:43;101242.50;;;19.25;94.93
3122;BME280;1571;52.524;14.104;2023-08-12T05:41:11;101236.00;;;19.57;92.71
3122;BME280;1571;52.524;14.104;2023-08-12T05:43:41;101232.88;;;19.91;91.81
3122;BME280;1571;52.524;14.104;2023-08-12T05:46:11;101232.41;;;20.05;88.16
3122;BME280;1571;52.524;14.104;2023-08-12T05:48:39;101232.72;;;20.39;84.38
3122;BME280;1571;52.524;14.104;2023-08-12T05:51:07;101237.94;;;20.61;81.98
3122;BME280;1571;52.524;14.104;2023-08-12T05:53:35;101244.31;;;20.59;82.85
3122;BME280;1571;52.524;14.104;2023-08-12T05:56:04;101240.09;;;20.47;82.75
3122;BME280;1571;52.524;14.104;2023-08-12T05:58:32;101249.47;;;20.43;85.14
3122;BME280;1571;52.524;14.104;2023-08-12T06:01:02;101246.47;;;20.09;82.37
3122;BME280;1571;52.524;14.104;2023-08-12T06:03:30;101254.25;;;20.12;82.99
3122;BME280;1571;52.524;14.104;2023-08-12T06:05:58;101259.53;;;19.74;82.80
3122;BME280;1571;52.524;14.104;2023-08-12T06:08:27;101271.59;;;19.80;82.38
3122;BME280;1571;52.524;14.104;2023-08-12T06:10:55;101270.19;;;19.76;83.86
3122;BME280;1571;52.524;14.104;2023-08-12T06:13:23;101267.59;;;20.13;82.62
3122;BME280;1571;52.524;14.104;2023-08-12T06:15:51;101258.84;;;20.39;81.33
3122;BME280;1571;52.524;14.104;2023-08-12T06:18:21;101267.34;;;20.44;82.59
3122;BME280;1571;52.524;14.104;2023-08-12T06:20:49;101262.78;;;20.54;82.32
3122;BME280;1571;52.524;14.104;2023-08-12T06:23:17;101258.41;;;20.81;81.19
3122;BME280;1571;52.524;14.104;2023-08-12T06:25:45;101266.00;;;20.68;80.56
3122;BME280;1571;52.524;14.104;2023-08-12T06:28:13;101263.59;;;20.65;81.88
3122;BME280;1571;52.524;14.104;2023-08-12T06:30:44;101266.22;;;20.84;81.24
3122;BME280;1571;52.524;14.104;2023-08-12T06:33:13;101265.47;;;21.37;78.87
3122;BME280;1571;52.524;14.104;2023-08-12T06:35:42;101267.63;;;21.52;80.42
3122;BME280;1571;52.524;14.104;2023-08-12T06:38:15;101263.31;;;21.59;77.75
3122;BME280;1571;52.524;14.104;2023-08-12T06:40:43;101257.75;;;21.78;76.39
3122;BME280;1571;52.524;14.104;2023-08-12T06:43:11;101263.06;;;21.52;77.84
3122;BME280;1571;52.524;14.104;2023-08-12T06:45:39;101264.53;;;21.29;77.46
3122;BME280;1571;52.524;14.104;2023-08-12T06:48:08;101260.75;;;21.39;77.89
3122;BME280;1571;52.524;14.104;2023-08-12T06:50:36;101258.19;;;21.20;79.42
3122;BME280;1571;52.524;14.104;2023-08-12T06:53:06;101248.41;;;21.37;78.07
3122;BME280;1571;52.524;14.104;2023-08-12T06:55:34;101252.94;;;21.36;77.61
3122;BME280;1571;52.524;14.104;2023-08-12T06:58:02;101246.81;;;21.62;76.57
3122;BME280;1571;52.524;14.104;2023-08-12T07:00:30;101235.63;;;22.01;74.66
3122;BME280;1571;52.524;14.104;2023-08-12T07:02:59;101234.16;;;22.07;74.33
3122;BME280;1571;52.524;14.104;2023-08-12T07:05:27;101237.50;;;22.09;74.15
3122;BME280;1571;52.524;14.104;2023-08-12T07:07:55;101230.00;;;22.20;72.59
3122;BME280;1571;52.524;14.104;2023-08-12T07:10:25;101234.16;;;22.33;74.03
3122;BME280;1571;52.524;14.104;2023-08-12T07:12:55;101229.59;;;22.76;72.76
3122;BME280;1571;52.524;14.104;2023-08-12T07:15:24;101234.13;;;23.01;70.93
3122;BME280;1571;52.524;14.104;2023-08-12T07:17:52;101231.47;;;23.26;70.80
3122;BME280;1571;52.524;14.104;2023-08-12T07:20:20;101232.00;;;23.38;69.92
3122;BME280;1571;52.524;14.104;2023-08-12T07:22:49;101232.69;;;23.40;67.93
3122;BME280;1571;52.524;14.104;2023-08-12T07:25:17;101231.50;;;23.42;68.80
3122;BME280;1571;52.524;14.104;2023-08-12T07:27:47;101235.88;;;23.43;70.93
3122;BME280;1571;52.524;14.104;2023-08-12T07:30:15;101239.94;;;23.64;70.46
3122;BME280;1571;52.524;14.104;2023-08-12T07:32:43;101224.56;;;23.81;68.27
3122;BME280;1571;52.524;14.104;2023-08-12T07:35:12;101235.41;;;23.64;68.45
3122;BME280;1571;52.524;14.104;2023-08-12T07:37:40;101235.78;;;23.78;68.12
3122;BME280;1571;52.524;14.104;2023-08-12T07:40:09;101231.50;;;24.00;67.33
3122;BME280;1571;52.524;14.104;2023-08-12T07:42:39;101229.09;;;24.21;65.54
3122;BME280;1571;52.524;14.104;2023-08-12T07:45:09;101223.94;;;24.51;65.73
3122;BME280;1571;52.524;14.104;2023-08-12T07:47:38;101226.38;;;24.21;64.55
3122;BME280;1571;52.524;14.104;2023-08-12T07:50:07;101225.19;;;24.24;65.35
3122;BME280;1571;52.524;14.104;2023-08-12T07:52:35;101233.38;;;23.83;66.28
3122;BME280;1571;52.524;14.104;2023-08-12T07:55:04;101231.53;;;23.83;66.42
3122;BME280;1571;52.524;14.104;2023-08-12T07:57:33;101237.22;;;23.15;67.09
3122;BME280;1571;52.524;14.104;2023-08-12T08:00:01;101232.97;;;23.20;67.24
3122;BME280;1571;52.524;14.104;2023-08-12T08:02:32;101229.41;;;23.12;68.58
3122;BME280;1571;52.524;14.104;2023-08-12T08:05:00;101237.03;;;23.16;69.07
3122;BME280;1571;52.524;14.104;2023-08-12T08:07:30;101238.16;;;22.97;69.67
3122;BME280;1571;52.524;14.104;2023-08-12T08:09:59;101230.06;;;23.05;70.68
3122;BME280;1571;52.524;14.104;2023-08-12T08:12:27;101218.25;;;23.23;69.33
3122;BME280;1571;52.524;14.104;2023-08-12T08:14:55;101223.00;;;23.62;68.65
3122;BME280;1571;52.524;14.104;2023-08-12T08:17:23;101211.50;;;23.68;68.21
3122;BME280;1571;52.524;14.104;2023-08-12T08:19:53;101221.19;;;23.79;69.45
3122;BME280;1571;52.524;14.104;2023-08-12T08:22:21;101225.06;;;23.68;69.03
3122;BME280;1571;52.524;14.104;2023-08-12T08:24:49;101217.25;;;23.98;68.44
3122;BME280;1571;52.524;14.104;2023-08-12T08:27:18;101214.13;;;24.34;66.04
3122;BME280;1571;52.524;14.104;2023-08-12T08:29:46;101219.91;;;24.30;66.61
3122;BME280;1571;52.524;14.104;2023-08-12T08:32:15;101220.00;;;24.54;65.99
3122;BME280;1571;52.524;14.104;2023-08-12T08:34:43;101222.72;;;24.54;64.31
3122;BME280;1571;52.524;14.104;2023-08-12T08:37:13;101217.34;;;24.37;64.71
3122;BME280;1571;52.524;14.104;2023-08-12T08:39:41;101216.00;;;24.25;65.38
3122;BME280;1571;52.524;14.104;2023-08-12T08:42:09;101213.81;;;24.20;65.75
3122;BME280;1571;52.524;14.104;2023-08-12T08:44:41;101206.03;;;24.09;66.17
3122;BME280;1571;52.524;14.104;2023-08-12T08:47:11;101213.81;;;24.20;67.14
3122;BME280;1571;52.524;14.104;2023-08-12T08:49:41;101210.47;;;24.02;67.45
3122;BME280;1571;52.524;14.104;2023-08-12T08:52:10;101211.41;;;24.34;67.91
3122;BME280;1571;52.524;14.104;2023-08-12T08:54:40;101209.34;;;24.44;66.68
3122;BME280;1571;52.524;14.104;2023-08-12T08:57:08;101204.09;;;24.50;65.94
3122;BME280;1571;52.524;14.104;2023-08-12T08:59:45;101207.28;;;24.54;67.05
3122;BME280;1571;52.524;14.104;2023-08-12T09:02:24;101213.25;;;24.89;67.23
3122;BME280;1571;52.524;14.104;2023-08-12T09:04:53;101209.31;;;24.60;68.39
3122;BME280;1571;52.524;14.104;2023-08-12T09:07:22;101199.66;;;24.89;66.03
3122;BME280;1571;52.524;14.104;2023-08-12T09:09:52;101205.41;;;24.94;65.80
3122;BME280;1571;52.524;14.104;2023-08-12T09:12:22;101199.34;;;24.84;66.71
3122;BME280;1571;52.524;14.104;2023-08-12T09:14:50;101200.72;;;25.11;65.72
3122;BME280;1571;52.524;14.104;2023-08-12T09:17:19;101196.66;;;25.38;65.76
3122;BME280;1571;52.524;14.104;2023-08-12T09:19:47;101189.09;;;25.17;64.82
3122;BME280;1571;52.524;14.104;2023-08-12T09:22:15;101195.50;;;25.01;65.86
3122;BME280;1571;52.524;14.104;2023-08-12T09:24:45;101198.63;;;24.90;66.58
3122;BME280;1571;52.524;14.104;2023-08-12T09:27:18;101201.16;;;24.60;67.34
3122;BME280;1571;52.524;14.104;2023-08-12T09:29:47;101195.28;;;24.48;68.33
3122;BME280;1571;52.524;14.104;2023-08-12T09:32:19;101200.47;;;24.02;70.66
3122;BME280;1571;52.524;14.104;2023-08-12T09:34:54;101187.78;;;23.95;69.79
3122;BME280;1571;52.524;14.104;2023-08-12T09:37:24;101189.13;;;23.90;69.33
3122;BME280;1571;52.524;14.104;2023-08-12T09:39:52;101185.44;;;23.83;71.57
3122;BME280;1571;52.524;14.104;2023-08-12T09:42:22;101187.09;;;23.84;70.90
3122;BME280;1571;52.524;14.104;2023-08-12T09:44:50;101183.72;;;23.99;69.90
3122;BME280;1571;52.524;14.104;2023-08-12T09:47:18;101180.47;;;24.12;69.56
3122;BME280;1571;52.524;14.104;2023-08-12T09:49:46;101180.09;;;24.23;70.41
3122;BME280;1571;52.524;14.104;2023-08-12T09:52:15;101175.22;;;24.58;69.66
3122;BME280;1571;52.524;14.104;2023-08-12T09:54:44;101174.56;;;25.10;68.32
3122;BME280;1571;52.524;14.104;2023-08-12T09:57:13;101173.09;;;25.30;66.30
3122;BME280;1571;52.524;14.104;2023-08-12T09:59:44;101164.47;;;25.65;65.09
3122;BME280;1571;52.524;14.104;2023-08-12T10:02:15;101165.13;;;25.67;65.11
3122;BME280;1571;52.524;14.104;2023-08-12T10:04:47;101148.78;;;26.05;64.42
3122;BME280;1571;52.524;14.104;2023-08-12T10:07:18;101135.84;;;26.07;64.43
3122;BME280;1571;52.524;14.104;2023-08-12T10:09:47;101140.16;;;26.82;63.89
3122;BME280;1571;52.524;14.104;2023-08-12T10:12:16;101137.97;;;26.56;64.52
3122;BME280;1571;52.524;14.104;2023-08-12T10:14:47;101128.63;;;26.65;62.83
3122;BME280;1571;52.524;14.104;2023-08-12T10:17:16;101132.03;;;26.67;65.04
3122;BME280;1571;52.524;14.104;2023-08-12T10:20:06;101127.75;;;27.01;63.47
3122;BME280;1571;52.524;14.104;2023-08-12T10:22:36;101119.41;;;27.03;61.17
3122;BME280;1571;52.524;14.104;2023-08-12T10:25:07;101125.97;;;27.30;60.40
3122;BME280;1571;52.524;14.104;2023-08-12T10:27:36;101122.19;;;26.88;62.07
3122;BME280;1571;52.524;14.104;2023-08-12T10:30:07;101124.56;;;26.76;61.70
3122;BME280;1571;52.524;14.104;2023-08-12T10:32:36;101125.13;;;27.29;61.97
3122;BME280;1571;52.524;14.104;2023-08-12T10:35:05;101112.25;;;28.08;59.79
3122;BME280;1571;52.524;14.104;2023-08-12T10:37:35;101108.28;;;28.58;58.19
3122;BME280;1571;52.524;14.104;2023-08-12T10:40:04;101116.91;;;28.62;58.32
3122;BME280;1571;52.524;14.104;2023-08-12T10:42:41;101109.19;;;28.85;56.01
3122;BME280;1571;52.524;14.104;2023-08-12T10:45:13;101103.94;;;28.97;56.17
3122;BME280;1571;52.524;14.104;2023-08-12T10:47:43;101100.81;;;29.47;55.51
3122;BME280;1571;52.524;14.104;2023-08-12T10:50:17;101115.38;;;28.53;55.20
3122;BME280;1571;52.524;14.104;2023-08-12T10:52:47;101101.63;;;28.19;54.87
3122;BME280;1571;52.524;14.104;2023-08-12T10:55:16;101104.88;;;28.01;55.81
3122;BME280;1571;52.524;14.104;2023-08-12T10:57:45;101100.56;;;28.20;56.79
3122;BME280;1571;52.524;14.104;2023-08-12T11:00:16;101091.97;;;28.98;55.18
3122;BME280;1571;52.524;14.104;2023-08-12T11:02:45;101098.75;;;28.41;55.19
3122;BME280;1571;52.524;14.104;2023-08-12T11:05:16;101101.44;;;28.34;56.83
3122;BME280;1571;52.524;14.104;2023-08-12T11:07:47;101087.53;;;28.16;58.26
3122;BME280;1571;52.524;14.104;2023-08-12T11:10:17;101080.16;;;28.71;56.50
3122;BME280;1571;52.524;14.104;2023-08-12T11:12:49;101084.03;;;28.35;56.21
3122;BME280;1571;52.524;14.104;2023-08-12T11:15:31;101074.44;;;28.05;57.95
3122;BME280;1571;52.524;14.104;2023-08-12T11:18:02;101080.47;;;28.41;56.42
3122;BME280;1571;52.524;14.104;2023-08-12T11:20:32;101073.25;;;28.20;57.21
3122;BME280;1571;52.524;14.104;2023-08-12T11:23:00;101072.56;;;28.05;59.09
3122;BME280;1571;52.524;14.104;2023-08-12T11:25:30;101066.00;;;27.93;59.42
3122;BME280;1571;52.524;14.104;2023-08-12T11:27:59;101059.63;;;27.79;59.67
3122;BME280;1571;52.524;14.104;2023-08-12T11:30:27;101072.44;;;27.50;58.71
3122;BME280;1571;52.524;14.104;2023-08-12T11:33:01;101064.41;;;27.42;59.81
3122;BME280;1571;52.524;14.104;2023-08-12T11:35:30;101073.53;;;27.28;60.63
3122;BME280;1571;52.524;14.104;2023-08-12T11:37:58;101081.31;;;27.31;60.38
3122;BME280;1571;52.524;14.104;2023-08-12T11:40:27;101072.38;;;27.44;59.17
3122;BME280;1571;52.524;14.104;2023-08-12T11:42:56;101078.09;;;27.49;59.70
3122;BME280;1571;52.524;14.104;2023-08-12T11:45:25;101060.09;;;27.54;59.35
3122;BME280;1571;52.524;14.104;2023-08-12T11:47:54;101062.31;;;27.44;59.52
3122;BME280;1571;52.524;14.104;2023-08-12T11:50:25;101067.88;;;27.57;59.75
3122;BME280;1571;52.524;14.104;2023-08-12T11:52:55;101084.44;;;27.28;60.98
3122;BME280;1571;52.524;14.104;2023-08-12T11:55:24;101072.25;;;27.02;60.68
3122;BME280;1571;52.524;14.104;2023-08-12T11:57:53;101068.47;;;26.82;61.22
3122;BME280;1571;52.524;14.104;2023-08-12T12:00:25;101069.63;;;26.72;62.09
3122;BME280;1571;52.524;14.104;2023-08-12T12:02:54;101066.63;;;26.46;63.93
3122;BME280;1571;52.524;14.104;2023-08-12T12:05:26;101073.16;;;26.15;67.78
3122;BME280;1571;52.524;14.104;2023-08-12T12:07:55;101071.63;;;26.27;65.49
3122;BME280;1571;52.524;14.104;2023-08-12T12:10:27;101068.47;;;26.09;67.21
3122;BME280;1571;52.524;14.104;2023-08-12T12:13:01;101063.97;;;25.86;67.23
3122;BME280;1571;52.524;14.104;2023-08-12T12:15:31;101067.53;;;25.72;69.08
3122;BME280;1571;52.524;14.104;2023-08-12T12:17:59;101069.53;;;25.93;68.06
3122;BME280;1571;52.524;14.104;2023-08-12T12:20:28;101069.63;;;26.00;66.69
3122;BME280;1571;52.524;14.104;2023-08-12T12:22:57;101068.88;;;26.06;66.93
3122;BME280;1571;52.524;14.104;2023-08-12T12:25:25;101064.75;;;26.10;66.91
3122;BME280;1571;52.524;14.104;2023-08-12T12:27:53;101061.72;;;26.05;66.47
3122;BME280;1571;52.524;14.104;2023-08-12T12:30:22;101058.25;;;26.11;66.37
3122;BME280;1571;52.524;14.104;2023-08-12T12:32:50;101054.88;;;26.09;66.32
3122;BME280;1571;52.524;14.104;2023-08-12T12:35:19;101049.91;;;25.98;67.24
3122;BME280;1571;52.524;14.104;2023-08-12T12:37:49;101067.25;;;25.67;67.58
3122;BME280;1571;52.524;14.104;2023-08-12T12:40:17;101065.38;;;25.82;67.55
3122;BME280;1571;52.524;14.104;2023-08-12T12:42:46;101060.81;;;25.83;68.09
3122;BME280;1571;52.524;14.104;2023-08-12T12:45:14;101060.72;;;25.76;68.16
3122;BME280;1571;52.524;14.104;2023-08-12T12:47:42;101066.78;;;25.63;69.78
3122;BME280;1571;52.524;14.104;2023-08-12T12:50:10;101078.03;;;25.45;70.37
3122;BME280;1571;52.524;14.104;2023-08-12T12:52:39;101076.97;;;25.31;71.39
3122;BME280;1571;52.524;14.104;2023-08-12T12:55:12;101070.69;;;25.31;70.91
3122;BME280;1571;52.524;14.104;2023-08-12T12:57:40;101059.72;;;25.24;71.89
3122;BME280;1571;52.524;14.104;2023-08-12T13:00:09;101057.19;;;25.23;72.30
3122;BME280;1571;52.524;14.104;2023-08-12T13:02:38;101054.75;;;25.28;72.33
3122;BME280;1571;52.524;14.104;2023-08-12T13:05:08;101045.59;;;25.29;72.05